Welcome to our new website - Welkom op onze vernieuwde website - Bienvenue sur notre nouveau site web - Willkommen auf unserer neuen Website
Check our progress frequently. Prüfen Sie unsere Fortschritte regelmäßig. Consultez notre progression fréquemment. Komt u straks nog eens terug


Bezoek onze andere website:

Template documentation
and downloads

And another site



METAR rapporten vliegvelden

   
EBBR - Brussels International Airport, Belgium
Afstand tot: W 14 km
Gewijzigd: Aug 22 2019 10:20 pm
Helder  
Helder  
   Wind: NW 7 km/h
Wind: NW 7 km/h
Temperatuur: 18°C
Dauwpunt: 12°C
Vochtigheid: 68%
Barometer: 1026 hPa
Zicht: meer dan 10 km
Bewolking: Helder
EBBR 222020Z 31004KT CAVOK 18/12 Q1026 NOSIG
EBBE - Beauvechain (Bevekom), Belgium
Afstand tot: ZZO 17 km
Gewijzigd: Aug 22 2019 9:55 pm
Helder  
Helder  
   Wind: varieert 2 km/h
Wind: varieert 2 km/h
Temperatuur: 20°C
Dauwpunt: 10°C
Vochtigheid: 53%
Barometer: 1026 hPa
Bewolking: Helder
Zicht: meer dan 10 km
Bewolking: Helder
EBBE 221955Z AUTO VRB01KT 9999 NCD 20/10 Q1026 BLU
EBDT - Schaffen, Belgium
Afstand tot: ONO 29 km
Gewijzigd: Aug 22 2019 9:55 pm
Grotendeels bewolkt  
Grotendeels bewolkt  
   Wind: Noorden 9 km/h
Wind: Noorden 9 km/h
Temperatuur: 18°C
Dauwpunt: 12°C
Vochtigheid: 68%
Barometer: 1026 hPa
Bewolking: Grotendeels bewolkt
Zicht: meer dan 10 km
Bewolking: Grotendeels bewolkt 4876.8 m,
Grotendeels bewolkt 6705.6 m
EBDT 221955Z AUTO 35005KT 9999 BKN160/// BKN220/// 18/12 Q1026 BLU
EBAW - Antwerp/Deurne, Belgium
Afstand tot: NNW 38 km
Gewijzigd: Aug 22 2019 10:20 pm
Helder  
Helder  
   Wind: NO 2 km/h
Wind: NO 2 km/h
Temperatuur: 18°C
Dauwpunt: 11°C
Vochtigheid: 64%
Barometer: 1026 hPa
Zicht: meer dan 10 km
Bewolking: Helder
EBAW 222020Z 05001KT CAVOK 18/11 Q1026 NOSIG
EBCI - Charleroi/Gosselies, Belgium
Afstand tot: ZZW 51 km
Gewijzigd: Aug 22 2019 10:20 pm
Helder  
Helder  
   Wind: varieert 4 km/h
Wind: varieert 4 km/h
Temperatuur: 18°C
Dauwpunt: 8°C
Vochtigheid: 52%
Barometer: 1026 hPa
Zicht: meer dan 10 km
Bewolking: Helder
EBCI 222020Z VRB02KT CAVOK 18/08 Q1026 NOSIG
EBLG - Bierset/Liege, Belgium
Afstand tot: OZO 60 km
Gewijzigd: Aug 22 2019 10:20 pm
Helder  
Helder  
   Wind: NNO 2 km/h
Wind: NNO 2 km/h
Temperatuur: 19°C
Dauwpunt: 11°C
Vochtigheid: 60%
Barometer: 1026 hPa
Zicht: meer dan 10 km
Bewolking: Helder
EBLG 222020Z 03001KT CAVOK 19/11 Q1026 NOSIG

Script ontwikkeld door  Saratoga-weather.org Aangepast voor de template door  Weerstation Leuven

U vindt ons ook hier:

Het Weer Aktueel

UK Metoffice

European Weather Network

WeatherCloud

Weather Underground

AWEKAS

Apparatuur in gebruik:

Weerstation
Davis VP2

Weerprogramma
Meteobridge

Weercomputer
Tl-mr3020

Webleverancier
Robohost

Davis VP2

Meteobridge

Tl-mr3020

Robohost